sensor_id;sensor_type;location;lat;lon;timestamp;temperature;humidity
25074;DHT22;13066;52.042;5.648;2022-12-07T00:01:19;6.50;99.90
25074;DHT22;13066;52.042;5.648;2022-12-07T00:03:48;6.40;99.90
25074;DHT22;13066;52.042;5.648;2022-12-07T00:06:17;6.40;99.90
25074;DHT22;13066;52.042;5.648;2022-12-07T00:08:47;6.40;99.90
25074;DHT22;13066;52.042;5.648;2022-12-07T00:11:18;6.30;99.90
25074;DHT22;13066;52.042;5.648;2022-12-07T00:13:50;6.30;99.90
25074;DHT22;13066;52.042;5.648;2022-12-07T00:16:20;6.30;99.90
25074;DHT22;13066;52.042;5.648;2022-12-07T00:18:48;6.30;99.90
25074;DHT22;13066;52.042;5.648;2022-12-07T00:21:18;6.30;99.90
25074;DHT22;13066;52.042;5.648;2022-12-07T00:23:47;6.30;99.90
25074;DHT22;13066;52.042;5.648;2022-12-07T00:26:19;6.20;99.90
25074;DHT22;13066;52.042;5.648;2022-12-07T00:28:49;6.30;99.90
25074;DHT22;13066;52.042;5.648;2022-12-07T00:31:19;6.30;99.90
25074;DHT22;13066;52.042;5.648;2022-12-07T00:33:47;6.20;99.90
25074;DHT22;13066;52.042;5.648;2022-12-07T00:36:18;6.20;99.90
25074;DHT22;13066;52.042;5.648;2022-12-07T00:38:53;6.20;99.90
25074;DHT22;13066;52.042;5.648;2022-12-07T00:41:23;6.20;99.90
25074;DHT22;13066;52.042;5.648;2022-12-07T00:43:52;6.20;99.90
25074;DHT22;13066;52.042;5.648;2022-12-07T00:46:21;6.20;99.90
25074;DHT22;13066;52.042;5.648;2022-12-07T00:48:50;6.20;99.90
25074;DHT22;13066;52.042;5.648;2022-12-07T00:51:20;6.20;99.90
25074;DHT22;13066;52.042;5.648;2022-12-07T00:53:49;6.10;99.90
25074;DHT22;13066;52.042;5.648;2022-12-07T00:56:19;6.10;99.90
25074;DHT22;13066;52.042;5.648;2022-12-07T00:58:51;6.10;99.90
25074;DHT22;13066;52.042;5.648;2022-12-07T01:01:19;6.10;99.90
25074;DHT22;13066;52.042;5.648;2022-12-07T01:03:48;6.10;99.90
25074;DHT22;13066;52.042;5.648;2022-12-07T01:06:16;6.10;99.90
25074;DHT22;13066;52.042;5.648;2022-12-07T01:08:44;6.10;99.90
25074;DHT22;13066;52.042;5.648;2022-12-07T01:11:14;6.10;99.90
25074;DHT22;13066;52.042;5.648;2022-12-07T01:13:43;6.10;99.90
25074;DHT22;13066;52.042;5.648;2022-12-07T01:16:14;6.10;99.90
25074;DHT22;13066;52.042;5.648;2022-12-07T01:18:46;6.00;99.90
25074;DHT22;13066;52.042;5.648;2022-12-07T01:21:16;6.00;99.90
25074;DHT22;13066;52.042;5.648;2022-12-07T01:23:44;6.00;99.90
25074;DHT22;13066;52.042;5.648;2022-12-07T01:26:15;6.00;99.90
25074;DHT22;13066;52.042;5.648;2022-12-07T01:28:43;6.00;99.90
25074;DHT22;13066;52.042;5.648;2022-12-07T01:31:15;5.90;99.90
25074;DHT22;13066;52.042;5.648;2022-12-07T01:33:45;5.90;99.90
25074;DHT22;13066;52.042;5.648;2022-12-07T01:36:14;5.90;99.90
25074;DHT22;13066;52.042;5.648;2022-12-07T01:38:43;6.00;99.90
25074;DHT22;13066;52.042;5.648;2022-12-07T01:41:12;5.90;99.90
25074;DHT22;13066;52.042;5.648;2022-12-07T01:44:11;5.90;99.90
25074;DHT22;13066;52.042;5.648;2022-12-07T01:46:39;5.90;99.90
25074;DHT22;13066;52.042;5.648;2022-12-07T01:49:10;5.80;99.90
25074;DHT22;13066;52.042;5.648;2022-12-07T01:51:40;5.80;99.90
25074;DHT22;13066;52.042;5.648;2022-12-07T01:54:11;5.80;99.90
25074;DHT22;13066;52.042;5.648;2022-12-07T01:56:40;5.80;99.90
25074;DHT22;13066;52.042;5.648;2022-12-07T01:59:11;5.80;99.90
25074;DHT22;13066;52.042;5.648;2022-12-07T02:01:39;5.80;99.90
25074;DHT22;13066;52.042;5.648;2022-12-07T02:04:07;5.80;99.90
25074;DHT22;13066;52.042;5.648;2022-12-07T02:06:35;5.80;99.90
25074;DHT22;13066;52.042;5.648;2022-12-07T02:09:04;5.80;99.90
25074;DHT22;13066;52.042;5.648;2022-12-07T02:11:32;5.80;99.90
25074;DHT22;13066;52.042;5.648;2022-12-07T02:14:00;5.80;99.90
25074;DHT22;13066;52.042;5.648;2022-12-07T02:16:34;5.70;99.90
25074;DHT22;13066;52.042;5.648;2022-12-07T02:22:11;5.80;99.90
25074;DHT22;13066;52.042;5.648;2022-12-07T02:24:53;5.70;99.90
25074;DHT22;13066;52.042;5.648;2022-12-07T02:27:38;5.60;99.90
25074;DHT22;13066;52.042;5.648;2022-12-07T02:30:10;5.60;99.90
25074;DHT22;13066;52.042;5.648;2022-12-07T02:32:44;5.60;99.90
25074;DHT22;13066;52.042;5.648;2022-12-07T02:35:18;5.60;99.90
25074;DHT22;13066;52.042;5.648;2022-12-07T02:37:59;5.60;99.90
25074;DHT22;13066;52.042;5.648;2022-12-07T02:40:34;5.60;99.90
25074;DHT22;13066;52.042;5.648;2022-12-07T02:43:04;5.60;99.90
25074;DHT22;13066;52.042;5.648;2022-12-07T02:45:38;5.60;99.90
25074;DHT22;13066;52.042;5.648;2022-12-07T02:48:07;5.50;99.90
25074;DHT22;13066;52.042;5.648;2022-12-07T02:50:36;5.50;99.90
25074;DHT22;13066;52.042;5.648;2022-12-07T02:53:04;5.50;99.90
25074;DHT22;13066;52.042;5.648;2022-12-07T02:55:36;5.50;99.90
25074;DHT22;13066;52.042;5.648;2022-12-07T02:58:21;5.60;99.90
25074;DHT22;13066;52.042;5.648;2022-12-07T03:01:02;5.60;99.90
25074;DHT22;13066;52.042;5.648;2022-12-07T03:03:33;5.60;99.90
25074;DHT22;13066;52.042;5.648;2022-12-07T03:06:14;5.60;99.90
25074;DHT22;13066;52.042;5.648;2022-12-07T03:08:51;5.60;99.90
25074;DHT22;13066;52.042;5.648;2022-12-07T03:11:25;5.70;99.90
25074;DHT22;13066;52.042;5.648;2022-12-07T03:14:00;5.70;99.90
25074;DHT22;13066;52.042;5.648;2022-12-07T03:16:33;5.70;99.90
25074;DHT22;13066;52.042;5.648;2022-12-07T03:19:07;5.70;99.90
25074;DHT22;13066;52.042;5.648;2022-12-07T03:21:39;5.70;99.90
25074;DHT22;13066;52.042;5.648;2022-12-07T03:24:11;5.70;99.90
25074;DHT22;13066;52.042;5.648;2022-12-07T03:26:43;5.70;99.90
25074;DHT22;13066;52.042;5.648;2022-12-07T03:29:14;5.80;99.90
25074;DHT22;13066;52.042;5.648;2022-12-07T03:31:47;5.80;99.90
25074;DHT22;13066;52.042;5.648;2022-12-07T03:34:19;5.80;99.90
25074;DHT22;13066;52.042;5.648;2022-12-07T03:36:52;5.80;99.90
25074;DHT22;13066;52.042;5.648;2022-12-07T03:39:25;5.80;99.90
25074;DHT22;13066;52.042;5.648;2022-12-07T03:41:55;5.80;99.90
25074;DHT22;13066;52.042;5.648;2022-12-07T03:44:24;5.80;99.90
25074;DHT22;13066;52.042;5.648;2022-12-07T03:47:01;5.80;99.90
25074;DHT22;13066;52.042;5.648;2022-12-07T03:49:34;5.80;99.90
25074;DHT22;13066;52.042;5.648;2022-12-07T03:52:11;5.80;99.90
25074;DHT22;13066;52.042;5.648;2022-12-07T03:54:44;5.90;99.90
25074;DHT22;13066;52.042;5.648;2022-12-07T03:57:14;5.90;99.90
25074;DHT22;13066;52.042;5.648;2022-12-07T03:59:43;5.80;99.90
25074;DHT22;13066;52.042;5.648;2022-12-07T04:02:13;5.90;99.90
25074;DHT22;13066;52.042;5.648;2022-12-07T04:04:42;5.90;99.90
25074;DHT22;13066;52.042;5.648;2022-12-07T04:07:10;5.80;99.90
25074;DHT22;13066;52.042;5.648;2022-12-07T04:09:39;5.80;99.90
25074;DHT22;13066;52.042;5.648;2022-12-07T04:12:07;5.80;99.90
25074;DHT22;13066;52.042;5.648;2022-12-07T04:14:35;5.80;99.90
25074;DHT22;13066;52.042;5.648;2022-12-07T04:17:03;5.80;99.90
25074;DHT22;13066;52.042;5.648;2022-12-07T04:19:33;5.80;99.90
25074;DHT22;13066;52.042;5.648;2022-12-07T04:22:03;5.80;99.90
25074;DHT22;13066;52.042;5.648;2022-12-07T04:24:31;5.80;99.90
25074;DHT22;13066;52.042;5.648;2022-12-07T04:26:59;5.80;99.90
25074;DHT22;13066;52.042;5.648;2022-12-07T04:29:28;5.80;99.90
25074;DHT22;13066;52.042;5.648;2022-12-07T04:31:55;5.80;99.90
25074;DHT22;13066;52.042;5.648;2022-12-07T04:34:23;5.80;99.90
25074;DHT22;13066;52.042;5.648;2022-12-07T04:36:53;5.80;99.90
25074;DHT22;13066;52.042;5.648;2022-12-07T04:39:22;5.80;99.90
25074;DHT22;13066;52.042;5.648;2022-12-07T04:41:50;5.80;99.90
25074;DHT22;13066;52.042;5.648;2022-12-07T04:44:19;5.80;99.90
25074;DHT22;13066;52.042;5.648;2022-12-07T04:46:48;5.80;99.90
25074;DHT22;13066;52.042;5.648;2022-12-07T04:49:16;5.80;99.90
25074;DHT22;13066;52.042;5.648;2022-12-07T04:51:44;5.80;99.90
25074;DHT22;13066;52.042;5.648;2022-12-07T04:54:14;5.80;99.90
25074;DHT22;13066;52.042;5.648;2022-12-07T04:56:43;5.90;99.90
25074;DHT22;13066;52.042;5.648;2022-12-07T04:59:11;5.80;99.90
25074;DHT22;13066;52.042;5.648;2022-12-07T05:01:40;5.80;99.90
25074;DHT22;13066;52.042;5.648;2022-12-07T05:04:08;5.80;99.90
25074;DHT22;13066;52.042;5.648;2022-12-07T05:06:37;5.90;99.90
25074;DHT22;13066;52.042;5.648;2022-12-07T05:09:05;5.90;99.90
25074;DHT22;13066;52.042;5.648;2022-12-07T05:11:34;5.90;99.90
25074;DHT22;13066;52.042;5.648;2022-12-07T05:14:08;5.90;99.90
25074;DHT22;13066;52.042;5.648;2022-12-07T05:16:37;5.90;99.90
25074;DHT22;13066;52.042;5.648;2022-12-07T05:19:05;5.90;99.90
25074;DHT22;13066;52.042;5.648;2022-12-07T05:21:33;5.90;99.90
25074;DHT22;13066;52.042;5.648;2022-12-07T05:24:01;5.90;99.90
25074;DHT22;13066;52.042;5.648;2022-12-07T05:26:29;5.80;99.90
25074;DHT22;13066;52.042;5.648;2022-12-07T05:28:59;5.80;99.90
25074;DHT22;13066;52.042;5.648;2022-12-07T05:31:27;5.80;99.90
25074;DHT22;13066;52.042;5.648;2022-12-07T05:33:55;5.80;99.90
25074;DHT22;13066;52.042;5.648;2022-12-07T05:36:23;5.80;99.90
25074;DHT22;13066;52.042;5.648;2022-12-07T05:38:51;5.80;99.90
25074;DHT22;13066;52.042;5.648;2022-12-07T05:41:19;5.80;99.90
25074;DHT22;13066;52.042;5.648;2022-12-07T05:44:06;5.80;99.90
25074;DHT22;13066;52.042;5.648;2022-12-07T05:46:35;5.80;99.90
25074;DHT22;13066;52.042;5.648;2022-12-07T05:49:03;5.80;99.90
25074;DHT22;13066;52.042;5.648;2022-12-07T05:51:30;5.80;99.90
25074;DHT22;13066;52.042;5.648;2022-12-07T05:53:59;5.80;99.90
25074;DHT22;13066;52.042;5.648;2022-12-07T05:56:26;5.80;99.90
25074;DHT22;13066;52.042;5.648;2022-12-07T05:58:54;5.80;99.90
25074;DHT22;13066;52.042;5.648;2022-12-07T06:01:41;5.70;99.90
25074;DHT22;13066;52.042;5.648;2022-12-07T06:04:09;5.70;99.90
25074;DHT22;13066;52.042;5.648;2022-12-07T06:06:37;5.70;99.90
25074;DHT22;13066;52.042;5.648;2022-12-07T06:09:06;5.70;99.90
25074;DHT22;13066;52.042;5.648;2022-12-07T06:11:34;5.70;99.90
25074;DHT22;13066;52.042;5.648;2022-12-07T06:14:20;5.70;99.90
25074;DHT22;13066;52.042;5.648;2022-12-07T06:16:49;5.70;99.90
25074;DHT22;13066;52.042;5.648;2022-12-07T06:19:18;5.60;99.90
25074;DHT22;13066;52.042;5.648;2022-12-07T06:21:46;5.60;99.90
25074;DHT22;13066;52.042;5.648;2022-12-07T06:24:14;5.60;99.90
25074;DHT22;13066;52.042;5.648;2022-12-07T06:26:43;5.60;99.90
25074;DHT22;13066;52.042;5.648;2022-12-07T06:29:11;5.60;99.90
25074;DHT22;13066;52.042;5.648;2022-12-07T06:31:40;5.60;99.90
25074;DHT22;13066;52.042;5.648;2022-12-07T06:34:11;5.70;99.90
25074;DHT22;13066;52.042;5.648;2022-12-07T06:36:40;5.60;99.90
25074;DHT22;13066;52.042;5.648;2022-12-07T06:39:08;5.70;99.90
25074;DHT22;13066;52.042;5.648;2022-12-07T06:41:37;5.70;99.90
25074;DHT22;13066;52.042;5.648;2022-12-07T06:44:06;5.70;99.90
25074;DHT22;13066;52.042;5.648;2022-12-07T06:46:34;5.70;99.90
25074;DHT22;13066;52.042;5.648;2022-12-07T06:49:03;5.70;99.90
25074;DHT22;13066;52.042;5.648;2022-12-07T06:51:33;5.70;99.90
25074;DHT22;13066;52.042;5.648;2022-12-07T06:54:02;5.70;99.90
25074;DHT22;13066;52.042;5.648;2022-12-07T06:56:30;5.70;99.90
25074;DHT22;13066;52.042;5.648;2022-12-07T06:58:58;5.70;99.90
25074;DHT22;13066;52.042;5.648;2022-12-07T07:01:26;5.70;99.90
25074;DHT22;13066;52.042;5.648;2022-12-07T07:03:54;5.70;99.90
25074;DHT22;13066;52.042;5.648;2022-12-07T07:06:22;5.70;99.90
25074;DHT22;13066;52.042;5.648;2022-12-07T07:08:51;5.60;99.90
25074;DHT22;13066;52.042;5.648;2022-12-07T07:11:19;5.60;99.90
25074;DHT22;13066;52.042;5.648;2022-12-07T07:13:47;5.60;99.90
25074;DHT22;13066;52.042;5.648;2022-12-07T07:16:16;5.60;99.90
25074;DHT22;13066;52.042;5.648;2022-12-07T07:18:44;5.60;99.90
25074;DHT22;13066;52.042;5.648;2022-12-07T07:21:12;5.60;99.90
25074;DHT22;13066;52.042;5.648;2022-12-07T07:23:40;5.60;99.90
25074;DHT22;13066;52.042;5.648;2022-12-07T07:26:09;5.70;99.90
25074;DHT22;13066;52.042;5.648;2022-12-07T07:28:37;5.60;99.90
25074;DHT22;13066;52.042;5.648;2022-12-07T07:31:06;5.70;99.90
25074;DHT22;13066;52.042;5.648;2022-12-07T07:33:34;5.60;99.90
25074;DHT22;13066;52.042;5.648;2022-12-07T07:36:02;5.70;99.90
25074;DHT22;13066;52.042;5.648;2022-12-07T07:38:30;5.60;99.90
25074;DHT22;13066;52.042;5.648;2022-12-07T07:40:58;5.60;99.90
25074;DHT22;13066;52.042;5.648;2022-12-07T07:43:27;5.60;99.90
25074;DHT22;13066;52.042;5.648;2022-12-07T07:45:55;5.60;99.90
25074;DHT22;13066;52.042;5.648;2022-12-07T07:48:23;5.60;99.90
25074;DHT22;13066;52.042;5.648;2022-12-07T07:50:51;5.60;99.90
25074;DHT22;13066;52.042;5.648;2022-12-07T07:53:19;5.60;99.90
25074;DHT22;13066;52.042;5.648;2022-12-07T07:55:51;5.60;99.90
25074;DHT22;13066;52.042;5.648;2022-12-07T07:58:20;5.60;99.90
25074;DHT22;13066;52.042;5.648;2022-12-07T08:00:49;5.60;99.90
25074;DHT22;13066;52.042;5.648;2022-12-07T08:03:17;5.50;99.90
25074;DHT22;13066;52.042;5.648;2022-12-07T08:05:46;5.50;99.90
25074;DHT22;13066;52.042;5.648;2022-12-07T08:08:13;5.50;99.90
25074;DHT22;13066;52.042;5.648;2022-12-07T08:10:42;5.50;99.90
25074;DHT22;13066;52.042;5.648;2022-12-07T08:13:10;5.50;99.90
25074;DHT22;13066;52.042;5.648;2022-12-07T08:15:42;5.50;99.90
25074;DHT22;13066;52.042;5.648;2022-12-07T08:18:13;5.50;99.90
25074;DHT22;13066;52.042;5.648;2022-12-07T08:20:42;5.50;99.90
25074;DHT22;13066;52.042;5.648;2022-12-07T08:23:10;5.60;99.90
25074;DHT22;13066;52.042;5.648;2022-12-07T08:25:39;5.60;99.90
25074;DHT22;13066;52.042;5.648;2022-12-07T08:28:07;5.50;99.90
25074;DHT22;13066;52.042;5.648;2022-12-07T08:30:35;5.60;99.90
25074;DHT22;13066;52.042;5.648;2022-12-07T08:33:03;5.60;99.90
25074;DHT22;13066;52.042;5.648;2022-12-07T08:35:34;5.60;99.90
25074;DHT22;13066;52.042;5.648;2022-12-07T08:38:02;5.70;99.90
25074;DHT22;13066;52.042;5.648;2022-12-07T08:40:30;5.70;99.90
25074;DHT22;13066;52.042;5.648;2022-12-07T08:42:58;5.80;99.90
25074;DHT22;13066;52.042;5.648;2022-12-07T08:45:26;5.80;99.90
25074;DHT22;13066;52.042;5.648;2022-12-07T08:47:58;5.80;99.90
25074;DHT22;13066;52.042;5.648;2022-12-07T08:50:27;5.90;99.90
25074;DHT22;13066;52.042;5.648;2022-12-07T08:52:58;5.90;99.90
25074;DHT22;13066;52.042;5.648;2022-12-07T08:55:27;5.90;99.90
25074;DHT22;13066;52.042;5.648;2022-12-07T08:57:57;5.90;99.90
25074;DHT22;13066;52.042;5.648;2022-12-07T09:00:25;6.00;99.90
25074;DHT22;13066;52.042;5.648;2022-12-07T09:02:54;6.00;99.90
25074;DHT22;13066;52.042;5.648;2022-12-07T09:05:22;6.00;99.90
25074;DHT22;13066;52.042;5.648;2022-12-07T09:07:55;6.00;99.90
25074;DHT22;13066;52.042;5.648;2022-12-07T09:10:25;6.00;99.90
25074;DHT22;13066;52.042;5.648;2022-12-07T09:12:53;6.00;99.90
25074;DHT22;13066;52.042;5.648;2022-12-07T09:15:21;6.10;99.90
25074;DHT22;13066;52.042;5.648;2022-12-07T09:17:49;6.10;99.90
25074;DHT22;13066;52.042;5.648;2022-12-07T09:20:17;6.10;99.90
25074;DHT22;13066;52.042;5.648;2022-12-07T09:22:53;6.10;99.90
25074;DHT22;13066;52.042;5.648;2022-12-07T09:25:21;6.10;99.90
25074;DHT22;13066;52.042;5.648;2022-12-07T09:27:55;6.20;99.90
25074;DHT22;13066;52.042;5.648;2022-12-07T09:30:24;6.20;99.90
25074;DHT22;13066;52.042;5.648;2022-12-07T09:32:53;6.20;99.90
25074;DHT22;13066;52.042;5.648;2022-12-07T09:35:21;6.20;99.90
25074;DHT22;13066;52.042;5.648;2022-12-07T09:37:49;6.20;99.90
25074;DHT22;13066;52.042;5.648;2022-12-07T09:40:19;6.20;99.90
25074;DHT22;13066;52.042;5.648;2022-12-07T09:42:50;6.20;99.90
25074;DHT22;13066;52.042;5.648;2022-12-07T09:45:21;6.20;99.90
25074;DHT22;13066;52.042;5.648;2022-12-07T09:47:50;6.20;99.90
25074;DHT22;13066;52.042;5.648;2022-12-07T09:50:21;6.20;99.90
25074;DHT22;13066;52.042;5.648;2022-12-07T09:52:50;6.30;99.90
25074;DHT22;13066;52.042;5.648;2022-12-07T09:55:22;6.30;99.90
25074;DHT22;13066;52.042;5.648;2022-12-07T09:57:53;6.30;99.90
25074;DHT22;13066;52.042;5.648;2022-12-07T10:00:23;6.40;99.90
25074;DHT22;13066;52.042;5.648;2022-12-07T10:02:55;6.40;99.90
25074;DHT22;13066;52.042;5.648;2022-12-07T10:05:26;6.50;99.90
25074;DHT22;13066;52.042;5.648;2022-12-07T10:07:55;6.50;99.90
25074;DHT22;13066;52.042;5.648;2022-12-07T10:10:26;6.60;99.90
25074;DHT22;13066;52.042;5.648;2022-12-07T10:13:02;6.60;99.90
25074;DHT22;13066;52.042;5.648;2022-12-07T10:15:48;6.70;99.90
25074;DHT22;13066;52.042;5.648;2022-12-07T10:18:25;6.70;99.90
25074;DHT22;13066;52.042;5.648;2022-12-07T10:21:12;6.70;99.90
25074;DHT22;13066;52.042;5.648;2022-12-07T10:23:42;6.80;99.90
25074;DHT22;13066;52.042;5.648;2022-12-07T10:26:27;6.80;99.90
25074;DHT22;13066;52.042;5.648;2022-12-07T10:28:59;6.80;99.90
25074;DHT22;13066;52.042;5.648;2022-12-07T10:31:28;6.80;99.90
25074;DHT22;13066;52.042;5.648;2022-12-07T10:33:58;6.80;99.90
25074;DHT22;13066;52.042;5.648;2022-12-07T10:36:30;6.90;99.90
25074;DHT22;13066;52.042;5.648;2022-12-07T10:39:03;6.90;99.90
25074;DHT22;13066;52.042;5.648;2022-12-07T10:41:52;6.90;99.90
25074;DHT22;13066;52.042;5.648;2022-12-07T10:44:23;7.00;99.90
25074;DHT22;13066;52.042;5.648;2022-12-07T10:47:19;7.00;99.90
25074;DHT22;13066;52.042;5.648;2022-12-07T10:50:15;7.00;99.90
25074;DHT22;13066;52.042;5.648;2022-12-07T10:52:58;7.00;99.90
25074;DHT22;13066;52.042;5.648;2022-12-07T10:55:41;7.00;99.90
25074;DHT22;13066;52.042;5.648;2022-12-07T10:58:28;7.00;99.90
25074;DHT22;13066;52.042;5.648;2022-12-07T11:01:08;7.10;99.90
25074;DHT22;13066;52.042;5.648;2022-12-07T11:03:45;7.00;99.90
25074;DHT22;13066;52.042;5.648;2022-12-07T11:06:26;7.00;99.90
25074;DHT22;13066;52.042;5.648;2022-12-07T11:09:03;7.00;99.90
25074;DHT22;13066;52.042;5.648;2022-12-07T11:11:35;7.00;99.90
25074;DHT22;13066;52.042;5.648;2022-12-07T11:14:13;7.10;99.90
25074;DHT22;13066;52.042;5.648;2022-12-07T11:16:55;7.10;99.90
25074;DHT22;13066;52.042;5.648;2022-12-07T11:19:42;7.20;99.90
25074;DHT22;13066;52.042;5.648;2022-12-07T11:22:22;7.20;99.90
25074;DHT22;13066;52.042;5.648;2022-12-07T11:24:56;7.20;99.90
25074;DHT22;13066;52.042;5.648;2022-12-07T11:27:32;7.30;99.90
25074;DHT22;13066;52.042;5.648;2022-12-07T11:30:10;7.40;99.90
25074;DHT22;13066;52.042;5.648;2022-12-07T11:32:56;7.40;99.90
25074;DHT22;13066;52.042;5.648;2022-12-07T11:35:36;7.50;99.90
25074;DHT22;13066;52.042;5.648;2022-12-07T11:38:11;7.50;99.90
25074;DHT22;13066;52.042;5.648;2022-12-07T11:40:43;7.60;99.90
25074;DHT22;13066;52.042;5.648;2022-12-07T11:43:21;7.60;99.90
25074;DHT22;13066;52.042;5.648;2022-12-07T11:45:57;7.70;99.90
25074;DHT22;13066;52.042;5.648;2022-12-07T11:48:30;7.70;99.90
25074;DHT22;13066;52.042;5.648;2022-12-07T11:51:02;7.70;99.90
25074;DHT22;13066;52.042;5.648;2022-12-07T11:53:35;7.70;99.90
25074;DHT22;13066;52.042;5.648;2022-12-07T11:56:09;7.70;99.90
25074;DHT22;13066;52.042;5.648;2022-12-07T11:58:45;7.80;99.90
25074;DHT22;13066;52.042;5.648;2022-12-07T12:01:26;7.80;99.90
25074;DHT22;13066;52.042;5.648;2022-12-07T12:04:03;7.80;99.90
25074;DHT22;13066;52.042;5.648;2022-12-07T12:06:32;7.70;99.90
25074;DHT22;13066;52.042;5.648;2022-12-07T12:09:05;7.70;99.90
25074;DHT22;13066;52.042;5.648;2022-12-07T12:12:17;7.70;99.90
25074;DHT22;13066;52.042;5.648;2022-12-07T12:15:30;7.80;99.90
25074;DHT22;13066;52.042;5.648;2022-12-07T12:18:15;7.80;99.90
25074;DHT22;13066;52.042;5.648;2022-12-07T12:20:51;7.80;99.90
25074;DHT22;13066;52.042;5.648;2022-12-07T12:23:22;7.80;99.90
25074;DHT22;13066;52.042;5.648;2022-12-07T12:25:52;7.80;99.90
25074;DHT22;13066;52.042;5.648;2022-12-07T12:28:25;7.90;99.90
25074;DHT22;13066;52.042;5.648;2022-12-07T12:31:06;7.90;99.90
25074;DHT22;13066;52.042;5.648;2022-12-07T12:33:35;8.00;99.90
25074;DHT22;13066;52.042;5.648;2022-12-07T12:36:25;7.90;99.90
25074;DHT22;13066;52.042;5.648;2022-12-07T12:39:12;8.00;99.90
25074;DHT22;13066;52.042;5.648;2022-12-07T12:41:59;8.00;99.90
25074;DHT22;13066;52.042;5.648;2022-12-07T12:48:07;8.00;99.90
25074;DHT22;13066;52.042;5.648;2022-12-07T12:51:38;8.00;99.90
25074;DHT22;13066;52.042;5.648;2022-12-07T12:54:14;8.00;99.90
25074;DHT22;13066;52.042;5.648;2022-12-07T12:56:47;7.90;99.90
25074;DHT22;13066;52.042;5.648;2022-12-07T12:59:25;8.00;99.90
25074;DHT22;13066;52.042;5.648;2022-12-07T13:01:56;8.00;99.90
25074;DHT22;13066;52.042;5.648;2022-12-07T13:04:28;8.00;99.90
25074;DHT22;13066;52.042;5.648;2022-12-07T13:06:59;8.00;99.90
25074;DHT22;13066;52.042;5.648;2022-12-07T13:09:29;8.00;99.90
25074;DHT22;13066;52.042;5.648;2022-12-07T13:12:02;8.00;99.90
25074;DHT22;13066;52.042;5.648;2022-12-07T13:14:52;8.00;99.90
25074;DHT22;13066;52.042;5.648;2022-12-07T13:17:56;8.10;99.90
25074;DHT22;13066;52.042;5.648;2022-12-07T13:20:49;8.20;99.90
25074;DHT22;13066;52.042;5.648;2022-12-07T13:23:29;8.20;99.90
25074;DHT22;13066;52.042;5.648;2022-12-07T13:26:12;8.20;99.90
25074;DHT22;13066;52.042;5.648;2022-12-07T13:28:45;8.20;99.90
25074;DHT22;13066;52.042;5.648;2022-12-07T13:31:31;8.30;99.90
25074;DHT22;13066;52.042;5.648;2022-12-07T13:34:00;8.30;99.90
25074;DHT22;13066;52.042;5.648;2022-12-07T13:36:30;8.30;99.90
25074;DHT22;13066;52.042;5.648;2022-12-07T13:39:19;8.40;99.90
25074;DHT22;13066;52.042;5.648;2022-12-07T13:41:50;8.40;99.90
25074;DHT22;13066;52.042;5.648;2022-12-07T13:44:19;8.30;99.90
25074;DHT22;13066;52.042;5.648;2022-12-07T13:46:53;8.30;99.90
25074;DHT22;13066;52.042;5.648;2022-12-07T13:49:25;8.30;99.90
25074;DHT22;13066;52.042;5.648;2022-12-07T13:51:54;8.20;99.90
25074;DHT22;13066;52.042;5.648;2022-12-07T13:54:24;8.20;99.90
25074;DHT22;13066;52.042;5.648;2022-12-07T13:56:53;8.10;99.90
25074;DHT22;13066;52.042;5.648;2022-12-07T13:59:23;8.10;99.90
25074;DHT22;13066;52.042;5.648;2022-12-07T14:01:53;8.10;99.90
25074;DHT22;13066;52.042;5.648;2022-12-07T14:04:33;8.00;99.90
25074;DHT22;13066;52.042;5.648;2022-12-07T14:07:19;8.00;99.90
25074;DHT22;13066;52.042;5.648;2022-12-07T14:09:56;8.00;99.90
25074;DHT22;13066;52.042;5.648;2022-12-07T14:12:26;7.90;99.90
25074;DHT22;13066;52.042;5.648;2022-12-07T14:14:55;7.80;99.90
25074;DHT22;13066;52.042;5.648;2022-12-07T14:17:25;7.80;99.90
25074;DHT22;13066;52.042;5.648;2022-12-07T14:19:55;7.80;99.90
25074;DHT22;13066;52.042;5.648;2022-12-07T14:22:26;7.80;99.90
25074;DHT22;13066;52.042;5.648;2022-12-07T14:25:17;7.80;99.90
25074;DHT22;13066;52.042;5.648;2022-12-07T14:27:51;7.80;99.90
25074;DHT22;13066;52.042;5.648;2022-12-07T14:30:20;7.80;99.90
25074;DHT22;13066;52.042;5.648;2022-12-07T14:32:50;7.70;99.90
25074;DHT22;13066;52.042;5.648;2022-12-07T14:35:19;7.80;99.90
25074;DHT22;13066;52.042;5.648;2022-12-07T14:37:49;7.80;99.90
25074;DHT22;13066;52.042;5.648;2022-12-07T14:40:20;7.80;99.90
25074;DHT22;13066;52.042;5.648;2022-12-07T14:42:51;7.80;99.90
25074;DHT22;13066;52.042;5.648;2022-12-07T14:45:22;7.80;99.90
25074;DHT22;13066;52.042;5.648;2022-12-07T14:47:50;7.80;99.90
25074;DHT22;13066;52.042;5.648;2022-12-07T14:50:40;7.80;99.90
25074;DHT22;13066;52.042;5.648;2022-12-07T14:53:34;7.70;99.90
25074;DHT22;13066;52.042;5.648;2022-12-07T14:56:05;7.80;99.90
25074;DHT22;13066;52.042;5.648;2022-12-07T14:58:33;7.80;99.90
25074;DHT22;13066;52.042;5.648;2022-12-07T15:01:01;7.80;99.90
25074;DHT22;13066;52.042;5.648;2022-12-07T15:03:29;7.80;99.90
25074;DHT22;13066;52.042;5.648;2022-12-07T15:05:58;7.80;99.90
25074;DHT22;13066;52.042;5.648;2022-12-07T15:08:26;7.80;99.90
25074;DHT22;13066;52.042;5.648;2022-12-07T15:10:54;7.80;99.90
25074;DHT22;13066;52.042;5.648;2022-12-07T15:13:23;7.80;99.90
25074;DHT22;13066;52.042;5.648;2022-12-07T15:16:10;7.80;99.90
25074;DHT22;13066;52.042;5.648;2022-12-07T15:18:38;7.80;99.90
25074;DHT22;13066;52.042;5.648;2022-12-07T15:21:24;7.80;99.90
25074;DHT22;13066;52.042;5.648;2022-12-07T15:23:53;7.80;99.90
25074;DHT22;13066;52.042;5.648;2022-12-07T15:26:21;7.80;99.90
25074;DHT22;13066;52.042;5.648;2022-12-07T15:28:52;7.80;99.90
25074;DHT22;13066;52.042;5.648;2022-12-07T15:31:20;7.70;99.90
25074;DHT22;13066;52.042;5.648;2022-12-07T15:34:08;7.70;99.90
25074;DHT22;13066;52.042;5.648;2022-12-07T15:36:36;7.70;99.90
25074;DHT22;13066;52.042;5.648;2022-12-07T15:39:04;7.70;99.90
25074;DHT22;13066;52.042;5.648;2022-12-07T15:41:41;7.70;99.90
25074;DHT22;13066;52.042;5.648;2022-12-07T15:44:11;7.70;99.90
25074;DHT22;13066;52.042;5.648;2022-12-07T15:46:57;7.60;99.90
25074;DHT22;13066;52.042;5.648;2022-12-07T15:49:26;7.60;99.90
25074;DHT22;13066;52.042;5.648;2022-12-07T15:51:55;7.60;99.90
25074;DHT22;13066;52.042;5.648;2022-12-07T15:54:24;7.60;99.90
25074;DHT22;13066;52.042;5.648;2022-12-07T15:56:54;7.50;99.90
25074;DHT22;13066;52.042;5.648;2022-12-07T15:59:26;7.50;99.90
25074;DHT22;13066;52.042;5.648;2022-12-07T16:01:54;7.50;99.90
25074;DHT22;13066;52.042;5.648;2022-12-07T16:04:22;7.50;99.90
25074;DHT22;13066;52.042;5.648;2022-12-07T16:06:50;7.40;99.90
25074;DHT22;13066;52.042;5.648;2022-12-07T16:09:19;7.40;99.90
25074;DHT22;13066;52.042;5.648;2022-12-07T16:11:47;7.40;99.90
25074;DHT22;13066;52.042;5.648;2022-12-07T16:14:16;7.30;99.90
25074;DHT22;13066;52.042;5.648;2022-12-07T16:16:46;7.30;99.90
25074;DHT22;13066;52.042;5.648;2022-12-07T16:19:14;7.40;99.90
25074;DHT22;13066;52.042;5.648;2022-12-07T16:21:41;7.50;99.90
25074;DHT22;13066;52.042;5.648;2022-12-07T16:24:09;7.70;99.90